Time;durP1;ratioP1;P1;durP2;ratioP2;P2;SDS_P1;SDS_P2;PMS_P1;PMS_P2;Temp;Humidity;BMP_temperature;BMP_pressure;BME280_temperature;BME280_humidity;BME280_pressure;Samples;Min_cycle;Max_cycle;Signal;HPM_P1;HPM_P2
2024/01/24 00:00:44;;;;;;;19.63;4.15;;;;;;;9.37;84.82;99853.63;5039728;28;20466;-53
2024/01/24 00:03:11;;;;;;;32.33;4.40;;;;;;;9.41;84.68;99867.53;5042889;28;20052;-51
2024/01/24 00:05:39;;;;;;;31.48;6.85;;;;;;;9.46;84.64;99889.38;5038405;28;20053;-54
2024/01/24 00:08:06;;;;;;;23.05;5.68;;;;;;;9.46;84.45;99878.31;5047081;28;20045;-56
2024/01/24 00:10:33;;;;;;;23.95;6.90;;;;;;;9.44;84.39;99905.50;5044182;28;20499;-53
2024/01/24 00:13:01;;;;;;;29.73;6.10;;;;;;;9.44;84.39;99886.97;5046600;28;20045;-52
2024/01/24 00:15:28;;;;;;;29.02;5.80;;;;;;;9.44;84.49;99898.03;5046777;28;20063;-52
2024/01/24 00:17:55;;;;;;;25.52;7.05;;;;;;;9.45;84.64;99912.66;5046883;28;20515;-52
2024/01/24 00:20:23;;;;;;;25.42;6.80;;;;;;;9.44;84.80;99902.75;5046029;28;20056;-49
2024/01/24 00:22:52;;;;;;;41.38;7.97;;;;;;;9.40;85.12;99940.56;5040083;28;20517;-52
2024/01/24 00:25:19;;;;;;;24.27;6.38;;;;;;;9.36;85.08;99900.97;5045846;28;20055;-54
2024/01/24 00:27:47;;;;;;;36.65;6.57;;;;;;;9.34;85.17;99917.09;5047129;28;20041;-52
2024/01/24 00:30:14;;;;;;;28.70;6.45;;;;;;;9.33;85.35;99940.34;5046921;28;20561;-48
2024/01/24 00:32:41;;;;;;;23.38;7.20;;;;;;;9.33;85.35;99943.13;5046642;28;20061;-52
2024/01/24 00:35:09;;;;;;;30.63;6.70;;;;;;;9.30;85.04;99952.91;5047001;28;20045;-50
2024/01/24 00:37:36;;;;;;;23.13;5.72;;;;;;;9.31;85.09;99954.53;5047030;28;20052;-52
2024/01/24 00:40:04;;;;;;;27.15;6.18;;;;;;;9.32;85.04;99956.13;5046799;28;20419;-51
2024/01/24 00:42:31;;;;;;;26.00;5.60;;;;;;;9.34;84.90;99959.34;5046635;28;20055;-52
2024/01/24 00:44:58;;;;;;;20.48;5.65;;;;;;;9.34;84.77;99955.78;5046476;28;20041;-53
2024/01/24 00:47:26;;;;;;;26.20;6.35;;;;;;;9.37;84.59;99963.34;5046389;28;20898;-51
2024/01/24 00:49:53;;;;;;;33.95;5.65;;;;;;;9.37;84.36;99983.47;5046773;28;20057;-49
2024/01/24 00:52:21;;;;;;;29.52;6.85;;;;;;;9.37;84.40;100007.56;5042126;28;20050;-51
2024/01/24 00:54:49;;;;;;;34.47;7.35;;;;;;;9.35;84.18;100016.19;5044205;28;20049;-51
2024/01/24 00:57:16;;;;;;;30.35;5.95;;;;;;;9.34;84.15;100030.38;5046042;28;20048;-53
2024/01/24 00:59:43;;;;;;;26.58;6.47;;;;;;;9.33;84.18;100006.66;5046821;28;20057;-48
2024/01/24 01:02:11;;;;;;;24.60;6.35;;;;;;;9.31;83.89;100042.94;5040609;28;20052;-51
2024/01/24 01:04:38;;;;;;;21.23;6.88;;;;;;;9.31;84.11;100034.63;5038863;28;20534;-50
2024/01/24 01:07:05;;;;;;;43.72;7.40;;;;;;;9.26;83.97;100043.19;5046088;28;20086;-53
2024/01/24 01:09:36;;;;;;;18.17;4.95;;;;;;;9.25;83.73;100068.38;5046555;28;20060;-50
2024/01/24 01:12:04;;;;;;;34.28;6.97;;;;;;;9.24;83.82;100064.03;5046472;28;20056;-50
2024/01/24 01:14:31;;;;;;;24.83;6.00;;;;;;;9.25;83.90;100077.47;5043380;28;20049;-54
2024/01/24 01:16:58;;;;;;;20.38;5.47;;;;;;;9.25;83.93;100123.63;5045860;28;20053;-54
2024/01/24 01:19:26;;;;;;;31.02;6.72;;;;;;;9.22;83.65;100072.66;5046407;28;20041;-54
2024/01/24 01:21:53;;;;;;;23.95;7.22;;;;;;;9.21;83.59;100144.81;5046667;28;20045;-47
2024/01/24 01:24:21;;;;;;;20.63;4.70;;;;;;;9.19;83.58;100134.09;5045433;28;20049;-50
2024/01/24 01:26:48;;;;;;;20.90;4.47;;;;;;;9.15;83.51;100134.03;5045398;28;20045;-54
2024/01/24 01:29:15;;;;;;;26.63;6.18;;;;;;;9.13;83.49;100146.56;5045702;28;20055;-51
2024/01/24 01:31:43;;;;;;;36.15;6.60;;;;;;;9.09;83.66;100135.41;5046113;28;20938;-50
2024/01/24 01:34:10;;;;;;;21.02;5.03;;;;;;;9.06;83.99;100149.91;5044897;28;20056;-53
2024/01/24 01:36:37;;;;;;;25.33;5.55;;;;;;;9.00;84.16;100181.69;5034435;28;20063;-52
2024/01/24 01:39:05;;;;;;;19.30;4.50;;;;;;;8.96;84.52;100146.84;5046016;28;20052;-53
2024/01/24 01:41:32;;;;;;;25.42;5.18;;;;;;;8.91;84.85;100171.94;5046101;28;20052;-50
2024/01/24 01:43:59;;;;;;;23.25;5.50;;;;;;;8.89;85.01;100164.00;5045415;28;20406;-53
2024/01/24 01:46:27;;;;;;;21.08;5.78;;;;;;;8.85;85.25;100168.59;5046007;28;20041;-53
2024/01/24 01:48:57;;;;;;;26.60;5.95;;;;;;;8.81;85.48;100164.94;5025446;28;20052;-51
2024/01/24 01:51:26;;;;;;;31.55;9.15;;;;;;;8.77;85.78;100188.84;5038944;28;20041;-55
2024/01/24 01:53:55;;;;;;;24.73;5.13;;;;;;;8.75;86.16;100193.91;5031876;28;20516;-50
2024/01/24 01:56:24;;;;;;;35.83;6.70;;;;;;;8.72;86.41;100197.38;5032548;28;20052;-53
2024/01/24 01:58:52;;;;;;;21.23;6.05;;;;;;;8.72;86.54;100185.53;5049997;28;20044;-50
2024/01/24 02:01:20;;;;;;;34.47;7.15;;;;;;;8.75;86.63;100218.75;5049482;28;20052;-53
2024/01/24 02:03:48;;;;;;;27.58;6.55;;;;;;;8.78;86.68;100245.69;5027450;28;20060;-51
2024/01/24 02:06:15;;;;;;;30.80;5.68;;;;;;;8.83;86.70;100253.72;5040699;28;20053;-50
2024/01/24 02:08:44;;;;;;;34.53;7.55;;;;;;;8.86;86.67;100264.06;5049522;28;20044;-50
2024/01/24 02:11:12;;;;;;;26.73;5.95;;;;;;;8.86;86.55;100263.25;5049864;28;20060;-50
2024/01/24 02:13:40;;;;;;;26.08;5.93;;;;;;;8.85;86.70;100267.97;5048912;28;20048;-51
2024/01/24 02:16:09;;;;;;;23.83;5.82;;;;;;;8.86;86.58;100271.53;5049474;28;20053;-52
2024/01/24 02:18:37;;;;;;;18.27;5.15;;;;;;;8.88;86.86;100283.84;5049486;28;20049;-52
2024/01/24 02:21:05;;;;;;;35.35;7.65;;;;;;;8.85;86.59;100273.50;5049925;28;20505;-52
2024/01/24 02:23:33;;;;;;;24.13;5.78;;;;;;;8.84;86.60;100288.44;5049181;28;20414;-52
2024/01/24 02:26:00;;;;;;;40.92;7.30;;;;;;;8.81;86.68;100280.88;5049046;28;20064;-49
2024/01/24 02:28:29;;;;;;;33.92;5.28;;;;;;;8.80;86.70;100303.28;5031190;28;20763;-53
2024/01/24 02:30:56;;;;;;;44.42;8.05;;;;;;;8.77;86.68;100310.28;5048617;28;20045;-50
2024/01/24 02:33:23;;;;;;;28.17;6.32;;;;;;;8.78;86.62;100327.66;5046667;28;20056;-53
2024/01/24 02:35:51;;;;;;;35.72;6.55;;;;;;;8.76;86.63;100341.81;5048035;28;20052;-52
2024/01/24 02:38:18;;;;;;;31.23;6.28;;;;;;;8.72;86.57;100346.41;5048052;28;20053;-52
2024/01/24 02:40:46;;;;;;;57.00;8.55;;;;;;;8.69;86.66;100338.78;5046130;28;20041;-52
2024/01/24 02:43:13;;;;;;;37.20;7.35;;;;;;;8.67;86.87;100376.97;5048015;28;20832;-51
2024/01/24 02:45:40;;;;;;;27.75;5.22;;;;;;;8.66;86.94;100369.84;5048143;28;20514;-52
2024/01/24 02:48:08;;;;;;;33.50;7.00;;;;;;;8.67;86.84;100382.50;5048642;28;20045;-53
2024/01/24 02:50:35;;;;;;;28.83;6.22;;;;;;;8.64;86.99;100410.78;5047815;28;20549;-50
2024/01/24 02:53:03;;;;;;;26.52;5.82;;;;;;;8.64;87.00;100404.44;5048149;28;20049;-47
2024/01/24 02:55:30;;;;;;;38.13;6.05;;;;;;;8.61;86.98;100419.72;5048153;28;20052;-53
2024/01/24 02:57:57;;;;;;;31.40;7.38;;;;;;;8.61;87.05;100424.44;5047684;28;20495;-52
2024/01/24 03:02:57;;;;;;;25.10;6.72;;;;;;;8.56;87.34;100431.78;5068065;22;20465;-49
2024/01/24 03:05:24;;;;;;;30.13;6.72;;;;;;;8.52;87.70;100449.38;5067394;28;20103;-47
2024/01/24 03:07:51;;;;;;;27.50;5.65;;;;;;;8.49;87.98;100448.09;5067502;28;20068;-48
2024/01/24 03:10:21;;;;;;;37.58;8.57;;;;;;;8.47;88.32;100455.09;5067907;28;20049;-51
2024/01/24 03:12:49;;;;;;;19.90;6.20;;;;;;;8.46;88.62;100473.59;5068084;28;20715;-49
2024/01/24 03:15:16;;;;;;;34.30;6.70;;;;;;;8.47;88.74;100477.16;5067321;28;20075;-50
2024/01/24 03:17:43;;;;;;;21.23;5.28;;;;;;;8.49;88.71;100453.63;5067790;28;20049;-50
2024/01/24 03:20:12;;;;;;;34.35;6.28;;;;;;;8.52;88.73;100468.69;5067861;28;20052;-46
2024/01/24 03:22:41;;;;;;;24.65;4.72;;;;;;;8.53;88.41;100492.34;5067390;28;20048;-46
2024/01/24 03:25:09;;;;;;;29.50;6.53;;;;;;;8.55;88.41;100490.09;5067275;28;20525;-47
2024/01/24 03:27:37;;;;;;;34.92;5.40;;;;;;;8.54;88.41;100510.53;5067056;28;20048;-51
2024/01/24 03:30:05;;;;;;;23.73;5.05;;;;;;;8.51;88.09;100516.72;5060816;28;20056;-51
2024/01/24 03:32:32;;;;;;;27.45;5.63;;;;;;;8.49;88.23;100516.25;5066616;28;20057;-51
2024/01/24 03:35:00;;;;;;;28.33;5.63;;;;;;;8.43;88.11;100521.16;5068105;28;20053;-49
2024/01/24 03:37:27;;;;;;;32.15;6.43;;;;;;;8.39;88.08;100527.69;5067507;28;20040;-52
2024/01/24 03:39:55;;;;;;;34.90;7.50;;;;;;;8.36;88.02;100520.09;5066702;28;20053;-50
2024/01/24 03:42:22;;;;;;;21.80;5.80;;;;;;;8.32;88.19;100536.50;5067462;28;20052;-50
2024/01/24 03:44:49;;;;;;;23.25;5.10;;;;;;;8.30;88.19;100543.50;5058613;28;20053;-50
2024/01/24 03:47:17;;;;;;;24.40;4.90;;;;;;;8.28;88.33;100534.75;5065662;28;20506;-51
2024/01/24 03:49:44;;;;;;;29.15;6.28;;;;;;;8.24;88.28;100539.28;5066672;28;20398;-50
2024/01/24 03:52:11;;;;;;;25.58;5.35;;;;;;;8.21;88.47;100557.28;5066882;28;20532;-47
2024/01/24 03:54:39;;;;;;;28.95;5.40;;;;;;;8.19;88.52;100564.28;5065513;28;20055;-51
2024/01/24 03:57:06;;;;;;;30.52;7.95;;;;;;;8.16;88.75;100593.34;5066503;28;20060;-49
2024/01/24 03:59:36;;;;;;;22.90;5.90;;;;;;;8.13;88.86;100610.53;5067526;28;20048;-50
2024/01/24 04:02:03;;;;;;;23.58;6.15;;;;;;;8.12;88.88;100624.69;5054737;28;20064;-48
2024/01/24 04:04:31;;;;;;;27.83;5.93;;;;;;;8.10;89.17;100624.19;5047559;28;20045;-53
2024/01/24 04:06:58;;;;;;;32.92;7.05;;;;;;;8.09;89.12;100630.84;5046411;28;20037;-48
2024/01/24 04:09:26;;;;;;;28.35;6.03;;;;;;;8.07;89.23;100650.50;5046073;28;20045;-51
2024/01/24 04:11:53;;;;;;;36.45;6.75;;;;;;;8.04;89.36;100661.38;5046532;28;20684;-49
2024/01/24 04:14:20;;;;;;;32.90;8.35;;;;;;;8.02;89.45;100658.13;5046318;28;20048;-46
2024/01/24 04:16:48;;;;;;;25.77;7.18;;;;;;;7.99;89.55;100665.91;5047234;28;20052;-48
2024/01/24 04:19:15;;;;;;;26.88;5.55;;;;;;;7.98;89.63;100663.50;5046033;28;20047;-50
2024/01/24 04:21:44;;;;;;;29.48;5.13;;;;;;;7.96;89.66;100694.16;5047249;28;20053;-49
2024/01/24 04:24:11;;;;;;;26.02;5.70;;;;;;;7.94;89.81;100704.69;5047102;28;20712;-49
2024/01/24 04:26:39;;;;;;;23.13;5.75;;;;;;;7.94;89.97;100701.13;5046745;28;20072;-51
2024/01/24 04:29:06;;;;;;;28.05;6.03;;;;;;;7.92;89.61;100698.69;5046420;28;20586;-55
2024/01/24 04:31:40;;;;;;;24.65;7.18;;;;;;;7.88;89.91;100686.72;5039388;28;20055;-46
2024/01/24 04:34:08;;;;;;;29.05;6.40;;;;;;;7.86;89.96;100697.25;5046130;28;20052;-49
2024/01/24 04:36:35;;;;;;;29.70;7.22;;;;;;;7.83;90.08;100692.41;5046820;28;20048;-49
2024/01/24 04:39:03;;;;;;;33.90;8.65;;;;;;;7.82;90.21;100687.19;5046435;28;20052;-53
2024/01/24 04:41:30;;;;;;;23.33;5.60;;;;;;;7.79;90.16;100685.91;5046359;28;20053;-52
2024/01/24 04:43:58;;;;;;;32.03;8.57;;;;;;;7.76;90.36;100700.34;5045929;28;20040;-50
2024/01/24 04:46:25;;;;;;;29.52;5.60;;;;;;;7.75;90.62;100718.03;5045695;28;20052;-52
2024/01/24 04:48:52;;;;;;;28.42;6.32;;;;;;;7.76;90.44;100732.59;5045812;28;20048;-50
2024/01/24 04:51:21;;;;;;;31.83;7.18;;;;;;;7.74;90.40;100730.19;5036365;28;20507;-51
2024/01/24 04:53:49;;;;;;;30.60;6.18;;;;;;;7.73;90.53;100711.22;5025081;28;20049;-52
2024/01/24 04:56:17;;;;;;;35.20;8.73;;;;;;;7.72;90.61;100720.63;5046234;28;20406;-47
2024/01/24 04:58:44;;;;;;;27.35;6.70;;;;;;;7.70;90.90;100736.69;5046002;28;20049;-51
2024/01/24 05:01:11;;;;;;;31.60;4.60;;;;;;;7.68;91.06;100731.47;5045619;28;20056;-48
2024/01/24 05:03:39;;;;;;;30.17;6.78;;;;;;;7.68;90.97;100709.44;5045600;28;20057;-48
2024/01/24 05:06:06;;;;;;;32.80;7.13;;;;;;;7.66;90.93;100744.78;5046003;28;20033;-50
2024/01/24 05:08:38;;;;;;;30.30;5.10;;;;;;;7.65;91.28;100767.94;5045284;28;20045;-51
2024/01/24 05:11:05;;;;;;;25.58;5.55;;;;;;;7.64;91.08;100774.63;5041371;28;20057;-46
2024/01/24 05:13:33;;;;;;;36.45;5.78;;;;;;;7.63;91.46;100794.22;5044895;28;20045;-50
2024/01/24 05:16:00;;;;;;;24.10;4.35;;;;;;;7.62;91.51;100820.16;5044812;28;20050;-51
2024/01/24 05:18:27;;;;;;;26.25;6.07;;;;;;;7.61;91.68;100811.06;5045988;28;20056;-53
2024/01/24 05:20:55;;;;;;;18.08;4.47;;;;;;;7.57;91.82;100801.81;5046462;28;20888;-49
2024/01/24 05:23:22;;;;;;;34.75;7.60;;;;;;;7.56;92.01;100794.72;5045282;28;20045;-47
2024/01/24 05:25:50;;;;;;;26.95;5.20;;;;;;;7.57;92.20;100814.81;5045038;28;20398;-50
2024/01/24 05:28:18;;;;;;;26.35;4.80;;;;;;;7.54;92.03;100830.03;5045198;28;20041;-49
2024/01/24 05:30:45;;;;;;;25.17;5.18;;;;;;;7.53;92.30;100844.13;5044958;28;20409;-53
2024/01/24 05:33:13;;;;;;;25.48;5.85;;;;;;;7.50;92.16;100856.59;5045743;28;20056;-48
2024/01/24 05:35:40;;;;;;;27.90;4.88;;;;;;;7.47;92.59;100848.97;5036728;28;20056;-50
2024/01/24 05:38:07;;;;;;;20.13;4.47;;;;;;;7.45;92.77;100848.50;5044654;28;20052;-51
2024/01/24 05:40:35;;;;;;;20.83;5.18;;;;;;;7.44;93.23;100863.38;5044817;28;20053;-48
2024/01/24 05:43:03;;;;;;;22.40;6.03;;;;;;;7.41;92.91;100858.53;5045783;28;20068;-50
2024/01/24 05:45:31;;;;;;;19.50;4.10;;;;;;;7.39;93.04;100871.81;5045036;28;20041;-49
2024/01/24 05:47:58;;;;;;;26.27;5.15;;;;;;;7.40;93.02;100878.13;5045147;28;20052;-49
2024/01/24 05:50:26;;;;;;;27.15;4.05;;;;;;;7.38;92.97;100888.66;5044982;28;20041;-50
2024/01/24 05:52:54;;;;;;;29.17;6.05;;;;;;;7.35;93.09;100898.38;5045700;28;20049;-51
2024/01/24 05:55:21;;;;;;;19.88;3.13;;;;;;;7.34;93.23;100918.78;5044617;28;20442;-52
2024/01/24 05:57:49;;;;;;;21.55;5.18;;;;;;;7.33;93.27;100937.22;5044999;28;20060;-50
2024/01/24 06:00:16;;;;;;;20.27;4.28;;;;;;;7.32;93.39;100921.03;5044430;28;20602;-47
2024/01/24 06:02:44;;;;;;;28.92;5.05;;;;;;;7.34;93.30;100929.78;5054328;28;20146;-49
2024/01/24 06:05:11;;;;;;;25.95;6.38;;;;;;;7.32;93.09;100915.53;5065003;28;20044;-51
2024/01/24 06:07:39;;;;;;;22.95;5.85;;;;;;;7.31;93.32;100889.13;5065797;28;20052;-50
2024/01/24 06:10:07;;;;;;;31.48;5.07;;;;;;;7.30;93.40;100890.25;5046800;28;21454;-52
2024/01/24 06:12:34;;;;;;;15.65;4.85;;;;;;;7.27;93.44;100899.97;5047877;28;20049;-51
2024/01/24 06:15:02;;;;;;;21.88;4.30;;;;;;;7.27;93.46;100905.50;5064661;28;20044;-49
2024/01/24 06:17:30;;;;;;;15.68;4.75;;;;;;;7.26;93.42;100916.81;5064981;28;20051;-49
2024/01/24 06:20:00;;;;;;;26.40;6.20;;;;;;;7.23;93.62;100923.75;5065064;28;20045;-50
2024/01/24 06:22:28;;;;;;;24.95;5.55;;;;;;;7.23;93.55;100936.72;5065486;28;20049;-50
2024/01/24 06:24:57;;;;;;;22.45;4.32;;;;;;;7.22;93.61;100926.84;5064493;28;20604;-47
2024/01/24 06:27:25;;;;;;;22.50;3.92;;;;;;;7.22;93.56;100926.84;5065169;28;20457;-47
2024/01/24 06:29:56;;;;;;;13.18;3.78;;;;;;;7.22;93.73;100916.66;5064965;28;20048;-49
2024/01/24 06:32:43;;;;;;;21.08;3.80;;;;;;;7.22;93.82;100968.16;5061056;28;20045;-47
2024/01/24 06:35:10;;;;;;;25.10;4.68;;;;;;;7.22;93.90;100966.22;5064682;28;20037;-49
2024/01/24 06:37:38;;;;;;;23.00;4.30;;;;;;;7.22;93.73;100979.97;5067937;28;20060;-49
2024/01/24 06:40:09;;;;;;;13.52;3.22;;;;;;;7.22;93.83;101020.47;5068843;28;20054;-53
2024/01/24 06:42:40;;;;;;;27.85;4.88;;;;;;;7.21;93.82;101029.84;5069099;28;20046;-50
2024/01/24 06:45:08;;;;;;;29.08;4.32;;;;;;;7.20;93.84;101033.75;5068306;28;20798;-47
2024/01/24 06:47:35;;;;;;;19.45;4.78;;;;;;;7.18;93.90;101025.78;5067897;28;20048;-49
2024/01/24 06:50:03;;;;;;;20.67;4.63;;;;;;;7.19;93.99;100993.56;5067662;28;20076;-49
2024/01/24 06:52:30;;;;;;;17.25;5.57;;;;;;;7.18;94.23;100986.41;5062990;28;20048;-47
2024/01/24 06:54:58;;;;;;;28.27;7.30;;;;;;;7.16;94.09;100974.91;5060747;28;20135;-51
2024/01/24 06:57:25;;;;;;;23.63;5.55;;;;;;;7.14;94.25;100997.28;5067901;28;20056;-48
2024/01/24 06:59:54;;;;;;;30.25;6.47;;;;;;;7.13;94.33;101014.91;5068106;28;20051;-48
2024/01/24 07:02:22;;;;;;;17.10;4.90;;;;;;;7.12;94.32;101032.53;5052515;28;20048;-47
2024/01/24 07:04:50;;;;;;;27.50;8.05;;;;;;;7.10;94.58;101029.31;5047332;28;20073;-51
2024/01/24 07:07:18;;;;;;;36.63;6.22;;;;;;;7.09;94.61;101037.88;5047857;28;20037;-53
2024/01/24 07:09:45;;;;;;;24.50;5.20;;;;;;;7.08;94.63;101066.53;5047954;28;20077;-50
2024/01/24 07:12:13;;;;;;;32.00;6.53;;;;;;;7.07;94.76;101059.41;5048099;28;20045;-52
2024/01/24 07:14:40;;;;;;;22.70;4.72;;;;;;;7.05;94.80;101076.22;5047216;28;21808;-49
2024/01/24 07:17:08;;;;;;;21.42;4.63;;;;;;;7.04;94.97;101090.31;5029993;28;20401;-50
2024/01/24 07:19:35;;;;;;;25.27;4.63;;;;;;;7.04;95.34;101065.56;5047323;28;20056;-50
2024/01/24 07:22:03;;;;;;;27.20;5.60;;;;;;;7.04;95.17;101060.03;5047747;28;20041;-49
2024/01/24 07:24:32;;;;;;;33.30;5.10;;;;;;;7.05;95.28;101064.41;5047817;28;20057;-53
2024/01/24 07:26:59;;;;;;;26.20;4.45;;;;;;;7.05;95.51;101064.41;5047871;28;20522;-49
2024/01/24 07:29:26;;;;;;;23.83;4.93;;;;;;;7.05;95.67;101075.41;5029318;28;20045;-51
2024/01/24 07:31:53;;;;;;;22.52;4.70;;;;;;;7.06;95.65;101083.38;5043942;28;20048;-51
2024/01/24 07:34:21;;;;;;;29.92;5.65;;;;;;;7.07;95.57;101093.25;5046275;28;20430;-45
2024/01/24 07:36:49;;;;;;;25.95;5.32;;;;;;;7.07;95.66;101078.69;5047391;28;20052;-50
2024/01/24 07:39:16;;;;;;;33.17;5.65;;;;;;;7.06;95.73;101093.56;5039568;28;20045;-48
2024/01/24 07:41:43;;;;;;;38.55;6.25;;;;;;;7.08;95.82;101107.81;5048149;28;20061;-49
2024/01/24 07:44:11;;;;;;;25.65;4.80;;;;;;;7.07;95.96;101118.03;5045208;28;20068;-48
2024/01/24 07:46:42;;;;;;;25.55;5.28;;;;;;;7.08;95.97;101136.19;5038956;28;20055;-50
2024/01/24 07:49:10;;;;;;;29.92;5.82;;;;;;;7.09;96.05;101142.50;5045813;28;20071;-50
2024/01/24 07:51:38;;;;;;;28.73;4.85;;;;;;;7.07;96.22;101123.53;5029860;28;20064;-47
2024/01/24 07:54:06;;;;;;;35.80;6.68;;;;;;;7.10;96.21;101127.59;5051484;28;20064;-49
2024/01/24 07:56:34;;;;;;;28.95;6.10;;;;;;;7.10;96.31;101152.38;5050335;28;20041;-50
2024/01/24 07:59:04;;;;;;;30.65;7.57;;;;;;;7.10;96.23;101155.13;5045187;28;20057;-52
2024/01/24 08:01:31;;;;;;;30.13;6.28;;;;;;;7.10;96.36;101163.38;5049230;28;20055;-50
2024/01/24 08:03:59;;;;;;;30.55;7.45;;;;;;;7.11;96.35;101178.78;5065240;28;20043;-52
2024/01/24 08:06:27;;;;;;;25.23;5.88;;;;;;;7.11;96.39;101179.59;5067931;28;20818;-50
2024/01/24 08:08:54;;;;;;;18.48;5.35;;;;;;;7.12;96.33;101185.94;5065185;28;20052;-51
2024/01/24 08:11:23;;;;;;;34.03;5.53;;;;;;;7.14;96.21;101194.69;5059269;28;20045;-53
2024/01/24 08:13:50;;;;;;;30.35;7.43;;;;;;;7.12;96.15;101200.50;5068038;28;20593;-51
2024/01/24 08:16:18;;;;;;;35.53;6.78;;;;;;;7.11;96.30;101201.63;5062262;28;20674;-50
2024/01/24 08:18:48;;;;;;;30.45;6.80;;;;;;;7.11;96.30;101204.38;5068002;28;20055;-53
2024/01/24 08:21:17;;;;;;;27.58;7.90;;;;;;;7.10;96.15;101212.94;5065483;28;20059;-53
2024/01/24 08:23:44;;;;;;;32.72;7.03;;;;;;;7.09;96.34;101222.34;5066920;28;20052;-52
2024/01/24 08:26:17;;;;;;;36.40;6.90;;;;;;;7.07;96.21;101249.38;5066693;28;20048;-52
2024/01/24 08:28:45;;;;;;;32.95;9.05;;;;;;;7.07;96.25;101260.41;5065154;28;20047;-50
2024/01/24 08:31:13;;;;;;;28.70;7.82;;;;;;;7.06;96.34;101259.56;5065394;28;20036;-49
2024/01/24 08:33:40;;;;;;;27.83;8.27;;;;;;;7.06;96.20;101258.75;5066677;28;20053;-48
2024/01/24 08:36:09;;;;;;;34.88;7.32;;;;;;;7.06;96.21;101269.75;5067164;28;20041;-53
2024/01/24 08:38:36;;;;;;;37.00;7.03;;;;;;;7.04;96.42;101286.56;5065919;28;20041;-51
2024/01/24 08:41:04;;;;;;;41.78;6.78;;;;;;;7.03;96.26;101281.38;5048411;28;20595;-51
2024/01/24 08:43:31;;;;;;;25.02;5.30;;;;;;;7.02;96.28;101282.50;5065239;28;20047;-53
2024/01/24 08:45:58;;;;;;;27.58;5.82;;;;;;;7.02;96.38;101290.75;5058810;28;20515;-49
2024/01/24 08:48:26;;;;;;;33.53;6.85;;;;;;;7.01;96.37;101289.97;5059311;28;20159;-51
2024/01/24 08:50:53;;;;;;;31.92;7.00;;;;;;;7.02;96.55;101285.25;5049007;28;20045;-52
2024/01/24 08:53:21;;;;;;;26.15;6.05;;;;;;;7.02;96.32;101299.84;5057081;28;20120;-49
2024/01/24 08:55:48;;;;;;;34.75;5.82;;;;;;;7.03;96.33;101303.41;5047274;28;20047;-48
2024/01/24 08:58:17;;;;;;;32.83;5.57;;;;;;;7.03;96.30;101295.97;5065696;28;20056;-54
2024/01/24 09:00:45;;;;;;;33.00;7.85;;;;;;;7.04;96.23;101294.03;5058242;28;20056;-51
2024/01/24 09:03:13;;;;;;;39.95;7.32;;;;;;;7.05;96.17;101290.97;5046941;28;20051;-52
2024/01/24 09:05:41;;;;;;;42.03;6.45;;;;;;;7.07;96.28;101301.69;5035279;28;20057;-52
2024/01/24 09:08:09;;;;;;;30.02;8.57;;;;;;;7.06;96.38;101297.28;5046083;28;20380;-54
2024/01/24 09:10:36;;;;;;;24.48;5.93;;;;;;;7.08;96.15;101300.53;5043818;28;20053;-52
2024/01/24 09:13:04;;;;;;;33.22;6.22;;;;;;;7.07;96.20;101299.72;5046311;28;20626;-51
2024/01/24 09:15:32;;;;;;;29.38;5.97;;;;;;;7.07;96.19;101298.94;5043181;28;20056;-50
2024/01/24 09:18:01;;;;;;;42.40;6.72;;;;;;;7.09;96.07;101302.19;5044999;28;20053;-54
2024/01/24 09:20:29;;;;;;;23.30;6.07;;;;;;;7.09;96.17;101314.03;5039564;28;20513;-51
2024/01/24 09:22:57;;;;;;;35.00;6.43;;;;;;;7.09;95.98;101313.19;5047015;28;20045;-50
2024/01/24 09:25:25;;;;;;;34.00;7.13;;;;;;;7.10;96.09;101323.06;5050285;28;20049;-48
2024/01/24 09:27:53;;;;;;;34.28;6.47;;;;;;;7.10;96.07;101317.56;5054311;28;20056;-51
2024/01/24 09:30:21;;;;;;;27.27;6.15;;;;;;;7.12;95.90;101307.09;5045973;28;20438;-50
2024/01/24 09:32:49;;;;;;;41.45;7.93;;;;;;;7.12;96.00;101326.34;5023673;28;20045;-49
2024/01/24 09:35:18;;;;;;;34.70;7.63;;;;;;;7.11;96.18;101317.28;5029241;28;20053;-53
2024/01/24 09:37:46;;;;;;;30.30;5.68;;;;;;;7.11;95.96;101322.78;5044245;28;20060;-50
2024/01/24 09:40:17;;;;;;;39.38;8.38;;;;;;;7.12;96.09;101323.59;5039160;28;20057;-54
2024/01/24 09:42:45;;;;;;;37.97;7.70;;;;;;;7.12;96.17;101340.13;5046228;28;20052;-51
2024/01/24 09:45:16;;;;;;;28.33;6.32;;;;;;;7.13;95.97;101342.56;5033994;28;20041;-52
2024/01/24 09:47:47;;;;;;;43.90;8.35;;;;;;;7.15;95.84;101342.22;5045776;28;20044;-50
2024/01/24 09:50:15;;;;;;;28.50;7.05;;;;;;;7.15;96.13;101345.81;5042059;28;20092;-54
2024/01/24 09:52:43;;;;;;;28.10;5.78;;;;;;;7.17;96.11;101353.78;5028914;28;20056;-48
2024/01/24 09:55:16;;;;;;;28.52;4.78;;;;;;;7.18;96.38;101347.13;5046167;28;20041;-52
2024/01/24 09:57:45;;;;;;;37.10;8.30;;;;;;;7.19;96.11;101352.34;5045990;28;20060;-51
2024/01/24 10:00:14;;;;;;;30.58;6.85;;;;;;;7.20;96.07;101359.47;5041582;28;20053;-52
2024/01/24 10:02:46;;;;;;;32.85;6.93;;;;;;;7.22;96.20;101375.69;5062023;28;20068;-50
2024/01/24 10:05:17;;;;;;;29.40;6.50;;;;;;;7.24;96.27;101367.94;5064224;28;20032;-49
2024/01/24 10:07:45;;;;;;;41.53;7.00;;;;;;;7.25;96.17;101377.84;5059728;28;20394;-53
2024/01/24 10:10:13;;;;;;;29.67;6.72;;;;;;;7.26;96.28;101380.28;5065948;28;20052;-49
2024/01/24 10:12:45;;;;;;;23.08;6.28;;;;;;;7.29;96.03;101373.34;5070131;28;20044;-49
2024/01/24 10:15:13;;;;;;;28.38;7.60;;;;;;;7.30;96.12;101381.31;5060493;28;20067;-52
2024/01/24 10:17:46;;;;;;;43.33;6.47;;;;;;;7.33;96.18;101402.69;5068565;28;20390;-52
2024/01/24 10:20:14;;;;;;;36.30;8.38;;;;;;;7.35;96.01;101417.00;5067194;28;20055;-47
2024/01/24 10:22:44;;;;;;;28.42;7.10;;;;;;;7.38;96.06;101437.59;5069500;28;20043;-50
2024/01/24 10:25:12;;;;;;;40.25;7.88;;;;;;;7.42;95.98;101454.31;5069166;28;20064;-52
2024/01/24 10:27:41;;;;;;;21.42;7.07;;;;;;;7.44;95.95;101457.59;5067661;28;20522;-50
2024/01/24 10:30:11;;;;;;;30.17;9.40;;;;;;;7.47;95.79;101466.06;5069970;28;20517;-52
2024/01/24 10:32:43;;;;;;;33.00;7.65;;;;;;;7.49;95.91;101483.13;5069683;28;20549;-47
2024/01/24 10:35:10;;;;;;;33.88;7.28;;;;;;;7.52;95.82;101493.50;5069301;28;20049;-53
2024/01/24 10:37:41;;;;;;;30.23;6.65;;;;;;;7.54;95.67;101485.75;5064743;28;20040;-54
2024/01/24 10:40:14;;;;;;;37.05;7.05;;;;;;;7.58;95.63;101485.94;5060180;28;20053;-53
2024/01/24 10:42:43;;;;;;;32.45;7.22;;;;;;;7.61;95.56;101499.94;5068689;28;20079;-49
2024/01/24 10:45:10;;;;;;;39.70;8.38;;;;;;;7.67;95.57;101484.13;5067373;28;20067;-49
2024/01/24 10:47:40;;;;;;;36.08;7.22;;;;;;;7.71;95.57;101496.16;5062193;28;20509;-54
2024/01/24 10:50:09;;;;;;;39.22;6.65;;;;;;;7.74;95.52;101504.63;5063106;28;20498;-54
2024/01/24 10:52:42;;;;;;;35.70;7.50;;;;;;;7.79;95.56;101529.31;5067552;28;20624;-51
2024/01/24 10:55:12;;;;;;;32.45;8.48;;;;;;;7.84;95.41;101518.19;5064873;28;20056;-52
2024/01/24 10:57:42;;;;;;;41.80;7.20;;;;;;;7.89;95.17;101526.34;5067755;28;20474;-51
2024/01/24 11:00:11;;;;;;;34.03;6.72;;;;;;;7.96;95.14;101526.78;5068403;28;20044;-53
2024/01/24 11:02:41;;;;;;;29.27;5.85;;;;;;;8.04;95.04;101527.16;5068797;28;20067;-49
2024/01/24 11:05:17;;;;;;;36.55;6.47;;;;;;;8.08;94.90;101526.22;5068580;28;20036;-49
2024/01/24 11:08:08;;;;;;;24.70;7.40;;;;;;;8.13;94.84;101530.81;5070030;28;20052;-47
2024/01/24 11:10:40;;;;;;;26.42;6.43;;;;;;;8.15;94.65;101529.38;5068192;28;20047;-49
2024/01/24 11:13:07;;;;;;;32.70;6.68;;;;;;;8.17;94.64;101527.13;5068516;28;20052;-54
2024/01/24 11:15:35;;;;;;;32.92;7.20;;;;;;;8.19;94.49;101529.56;5051266;28;20048;-55
2024/01/24 11:18:31;;;;;;;30.73;6.50;;;;;;;8.20;94.34;101533.97;5064983;28;20045;-53
2024/01/24 11:21:00;;;;;;;33.22;6.57;;;;;;;8.18;94.43;101539.78;5066569;28;20056;-53
2024/01/24 11:23:35;;;;;;;37.13;10.00;;;;;;;8.19;94.33;101540.59;5064812;28;20079;-48
2024/01/24 11:26:02;;;;;;;43.22;7.93;;;;;;;8.18;94.37;101550.00;5069743;28;20045;-50
2024/01/24 11:28:30;;;;;;;28.58;6.85;;;;;;;8.17;94.31;101545.63;5069147;28;20040;-50
2024/01/24 11:30:58;;;;;;;31.70;6.85;;;;;;;8.17;94.30;101531.81;5069711;28;20060;-49
2024/01/24 11:33:26;;;;;;;32.60;7.18;;;;;;;8.15;94.26;101545.13;5059613;28;20056;-47